MPDA/DAV METAR and TAF weather

Enter ICAO airport designator
Station Type Date Time Source
MPDA METAR 2020/07/14 22:00 UTC NOAA

MPDA 142200Z 26006KT 9999 SCT015 29/24 Q1009


Station Type Date Time Source
MPDA Decoded METAR 2020/07/14 22:00 UTC NOAA

David, Panama (MPDA) 08-24N 082-25W 26M
Jul 14, 2020 - 06:00 PM EDT / 2020.07.14 2200 UTC
Wind: from the W (260 degrees) at 7 MPH (6 KT):0
Visibility: greater than 7 mile(s):0
Sky conditions: partly cloudy
Temperature: 84 F (29 C)
Dew Point: 75 F (24 C)
Relative Humidity: 74%
Pressure (altimeter): 29.80 in. Hg (1009 hPa)
ob: MPDA 142200Z 26006KT 9999 SCT015 29/24 Q1009
cycle: 22

Station Type Date Time Source
MPDA TAF 2020/07/14 18:51 UTC NOAA

TAF
AMD TAF
AMD MPDA 142300Z 1418/1506 CNL

Example: see airport list